Time;durP1;ratioP1;P1;durP2;ratioP2;P2;SDS_P1;SDS_P2;PMS_P1;PMS_P2;Temp;Humidity;BMP_temperature;BMP_pressure;BME280_temperature;BME280_humidity;BME280_pressure;Samples;Min_cycle;Max_cycle;Signal;HPM_P1;HPM_P2
2022/10/03 00:00:46;;;;;;;3.47;2.60;;;;;;;7.22;100.00;98466.30;1721308;82;21049;-67
2022/10/03 00:03:48;;;;;;;7.45;3.10;;;;;;;7.13;100.00;98463.23;1640614;83;21667;-67
2022/10/03 00:06:33;;;;;;;4.70;2.72;;;;;;;7.14;100.00;98457.52;1753965;81;21102;-67
2022/10/03 00:09:17;;;;;;;4.10;3.00;;;;;;;7.13;100.00;98457.12;1757342;81;21150;-67
2022/10/03 00:11:58;;;;;;;4.92;3.52;;;;;;;7.15;100.00;98464.44;1752752;81;21053;-66
2022/10/03 00:14:53;;;;;;;4.97;3.00;;;;;;;7.12;100.00;98458.06;1731713;81;21049;-67
2022/10/03 00:18:01;;;;;;;4.22;3.17;;;;;;;7.08;100.00;98453.89;1740260;81;21071;-66
2022/10/03 00:21:00;;;;;;;4.85;3.50;;;;;;;7.08;100.00;98461.74;1687084;84;21127;-67
2022/10/03 00:23:41;;;;;;;3.72;3.22;;;;;;;7.08;100.00;98459.13;1661016;84;21294;-65
2022/10/03 00:26:47;;;;;;;4.87;3.00;;;;;;;7.10;100.00;98450.74;1732297;81;21135;-67
2022/10/03 00:29:30;;;;;;;5.12;3.65;;;;;;;7.11;100.00;98445.91;1706149;82;22257;-68
2022/10/03 00:32:08;;;;;;;5.97;3.50;;;;;;;7.11;100.00;98436.75;1726217;81;21021;-67
2022/10/03 00:35:01;;;;;;;4.50;3.27;;;;;;;7.13;100.00;98446.65;1751272;81;21099;-67
2022/10/03 00:37:38;;;;;;;4.85;3.37;;;;;;;7.12;100.00;98438.42;1758432;81;22010;-66
2022/10/03 00:40:37;;;;;;;5.33;4.08;;;;;;;7.16;100.00;98445.67;1679424;83;21036;-66
2022/10/03 00:43:34;;;;;;;5.22;4.12;;;;;;;7.15;100.00;98439.57;1710977;82;21086;-67
2022/10/03 00:46:30;;;;;;;7.80;4.47;;;;;;;7.15;100.00;98439.57;1707077;83;21121;-68
2022/10/03 00:49:28;;;;;;;5.67;4.58;;;;;;;7.19;100.00;98435.88;1701093;81;20994;-69
2022/10/03 00:52:24;;;;;;;5.90;4.97;;;;;;;7.24;100.00;98435.18;1707373;81;21260;-67
2022/10/03 00:55:20;;;;;;;5.55;3.77;;;;;;;7.26;100.00;98435.95;1700611;81;21008;-66
2022/10/03 00:58:13;;;;;;;6.20;4.60;;;;;;;7.26;100.00;98435.95;1715196;83;21103;-66
2022/10/03 01:00:40;;;;;;;6.40;4.45;;;;;;;7.21;100.00;98432.73;1706710;83;21114;-68
2022/10/03 01:03:43;;;;;;;7.72;5.12;;;;;;;7.25;100.00;98423.80;1710094;82;20946;-67
2022/10/03 01:06:39;;;;;;;6.08;4.47;;;;;;;7.23;100.00;98419.10;1709025;82;21178;-67
2022/10/03 01:09:23;;;;;;;7.35;4.83;;;;;;;7.22;100.00;98431.79;1705870;82;21604;-66
2022/10/03 01:12:39;;;;;;;7.03;4.97;;;;;;;7.26;100.00;98434.64;1713122;82;21576;-69
2022/10/03 01:15:33;;;;;;;7.35;5.28;;;;;;;7.27;100.00;98423.27;1701043;82;21043;-66
2022/10/03 01:18:12;;;;;;;7.35;5.50;;;;;;;7.31;100.00;98419.54;1698831;81;21101;-68
2022/10/03 01:20:44;;;;;;;7.97;5.47;;;;;;;7.27;100.00;98427.19;1749331;81;21241;-67
2022/10/03 01:23:30;;;;;;;6.28;5.25;;;;;;;7.27;100.00;98431.12;1736343;81;21025;-69
2022/10/03 01:26:20;;;;;;;7.67;4.80;;;;;;;7.25;100.00;98423.80;1730607;81;21059;-66
2022/10/03 01:32:06;;;;;;;6.12;4.62;;;;;;;7.25;100.00;98421.18;1735358;81;21029;-67
2022/10/03 01:35:11;;;;;;;7.92;4.37;;;;;;;7.25;100.00;98423.80;1747975;81;21231;-68
2022/10/03 01:38:18;;;;;;;6.85;4.70;;;;;;;7.27;100.00;98427.19;1708174;82;21064;-67
2022/10/03 01:41:07;;;;;;;6.30;3.90;;;;;;;7.31;100.00;98422.16;1744461;81;21000;-66
2022/10/03 01:43:41;;;;;;;7.17;4.67;;;;;;;7.28;100.00;98424.94;1745599;81;21093;-66
2022/10/03 01:46:27;;;;;;;5.92;4.45;;;;;;;7.29;100.00;98420.11;1727803;82;21071;-65
2022/10/03 01:49:25;;;;;;;5.40;4.08;;;;;;;7.30;100.00;98424.88;1726529;82;21244;-67
2022/10/03 01:52:28;;;;;;;6.15;4.58;;;;;;;7.28;100.00;98417.09;1726325;82;21220;-66
2022/10/03 01:55:30;;;;;;;7.08;4.10;;;;;;;7.28;100.00;98419.70;1727526;82;21044;-67
2022/10/03 01:58:08;;;;;;;5.28;3.92;;;;;;;7.26;100.00;98420.24;1728981;82;21152;-67
2022/10/03 02:01:02;;;;;;;6.95;4.12;;;;;;;7.21;100.00;98418.33;1726746;81;22127;-67
2022/10/03 02:03:36;;;;;;;5.05;3.98;;;;;;;7.24;100.00;98412.92;1733751;81;22209;-66
2022/10/03 02:06:14;;;;;;;6.30;4.05;;;;;;;7.22;100.00;98420.01;1749785;81;21068;-69
2022/10/03 02:08:58;;;;;;;4.73;3.80;;;;;;;7.24;100.00;98415.55;1711657;83;21059;-68
2022/10/03 02:11:39;;;;;;;5.35;4.10;;;;;;;7.20;100.00;98421.88;1753854;81;21147;-66
2022/10/03 02:14:23;;;;;;;5.62;4.67;;;;;;;7.16;100.00;98422.12;1724803;82;21104;-68
2022/10/03 02:17:19;;;;;;;5.65;4.40;;;;;;;7.17;100.00;98425.95;1750855;81;21764;-67
2022/10/03 02:20:00;;;;;;;6.05;4.20;;;;;;;7.17;100.00;98427.25;1706388;82;21148;-67
2022/10/03 02:22:36;;;;;;;;;;;;;;;7.17;100.00;98428.56;1700704;82;21281;-67
2022/10/03 02:25:39;;;;;;;5.78;4.35;;;;;;;7.18;100.00;98426.34;1724478;83;20196;-67
2022/10/03 02:29:01;;;;;;;5.12;4.10;;;;;;;7.18;100.00;98413.70;1739430;81;21095;-66
2022/10/03 02:31:42;;;;;;;5.47;4.37;;;;;;;7.16;100.00;98416.88;1756900;81;21162;-66
2022/10/03 02:34:26;;;;;;;5.08;4.12;;;;;;;7.16;100.00;98418.19;1756425;81;21203;-67
2022/10/03 02:37:36;;;;;;;5.62;4.42;;;;;;;7.19;100.00;98419.34;1696204;81;21546;-67
2022/10/03 02:40:37;;;;;;;5.28;4.25;;;;;;;7.24;100.00;98418.16;1746167;81;21114;-67
2022/10/03 02:43:22;;;;;;;5.37;3.77;;;;;;;7.31;100.00;98415.61;1751253;81;21143;-67
2022/10/03 02:46:00;;;;;;;5.42;4.00;;;;;;;7.33;100.00;98415.55;1709156;83;21231;-67
2022/10/03 02:48:58;;;;;;;6.35;4.20;;;;;;;7.31;100.00;98416.08;1725851;83;21017;-66
2022/10/03 02:51:55;;;;;;;4.72;3.95;;;;;;;7.28;100.00;98412.32;1717175;81;21577;-67
2022/10/03 02:55:03;;;;;;;5.10;4.03;;;;;;;7.24;100.00;98415.55;1731027;81;21100;-69
2022/10/03 02:58:09;;;;;;;7.40;4.30;;;;;;;7.22;100.00;98417.39;1755134;81;21516;-66
2022/10/03 03:00:57;;;;;;;6.22;4.75;;;;;;;7.23;100.00;98410.41;1738468;81;21155;-67
2022/10/03 03:03:58;;;;;;;6.53;4.42;;;;;;;7.26;100.00;98402.39;1729855;81;21612;-67
2022/10/03 03:06:42;;;;;;;6.45;4.25;;;;;;;7.27;100.00;98411.48;1754779;81;21109;-69
2022/10/03 03:09:36;;;;;;;4.92;4.20;;;;;;;7.23;100.00;98410.41;1711653;83;21470;-67
2022/10/03 03:12:30;;;;;;;4.50;3.83;;;;;;;7.27;100.00;98410.17;1751263;81;21187;-66
2022/10/03 03:15:36;;;;;;;6.53;4.15;;;;;;;7.26;100.00;98416.31;1737527;81;21250;-67
2022/10/03 03:18:11;;;;;;;4.83;3.75;;;;;;;7.26;100.00;98408.46;1730388;81;21018;-67
2022/10/03 03:21:02;;;;;;;5.87;4.00;;;;;;;7.27;100.00;98407.55;1756650;81;21045;-66
2022/10/03 03:24:04;;;;;;;6.70;4.00;;;;;;;7.26;100.00;98403.22;1735933;81;21047;-67
2022/10/03 03:26:52;;;;;;;6.55;4.08;;;;;;;7.25;100.00;98406.78;1726372;81;21167;-67
2022/10/03 03:29:30;;;;;;;4.97;3.70;;;;;;;7.26;100.00;98415.01;1720589;82;21258;-67
2022/10/03 03:32:09;;;;;;;7.65;4.05;;;;;;;7.26;100.00;98418.94;1746075;81;21117;-68
2022/10/03 03:35:18;;;;;;;9.73;4.30;;;;;;;7.27;100.00;98415.41;1753621;81;21105;-66
2022/10/03 03:38:02;;;;;;;4.70;3.60;;;;;;;7.29;100.00;98410.95;1710504;82;21040;-66
2022/10/03 03:40:52;;;;;;;5.22;3.80;;;;;;;7.29;100.00;98405.70;1717002;82;21095;-66
2022/10/03 03:43:43;;;;;;;4.85;4.00;;;;;;;7.25;100.00;98397.62;1692311;81;21262;-68
2022/10/03 03:46:25;;;;;;;;;;;;;;;7.26;100.00;98401.08;1739133;82;21085;-67
2022/10/03 03:49:05;;;;;;;4.50;3.42;;;;;;;7.26;100.00;98396.67;1737821;82;20186;-66
2022/10/03 03:52:02;;;;;;;3.47;3.10;;;;;;;7.25;100.00;98395.47;1723055;82;21825;-68
2022/10/03 03:55:23;;;;;;;6.30;3.98;;;;;;;7.23;100.00;98402.08;1738398;82;21112;-67
2022/10/03 03:58:32;;;;;;;5.65;3.33;;;;;;;7.23;100.00;98402.08;1737392;81;21525;-67
2022/10/03 04:01:36;;;;;;;5.08;3.70;;;;;;;7.25;100.00;98402.85;1728322;82;21094;-68
2022/10/03 04:04:34;;;;;;;4.78;3.92;;;;;;;7.26;100.00;98408.46;1723769;81;21535;-67
2022/10/03 04:07:41;;;;;;;7.90;3.80;;;;;;;7.25;100.00;98409.40;1709851;82;21062;-68
2022/10/03 04:10:32;;;;;;;5.92;4.00;;;;;;;7.27;100.00;98409.30;1727975;81;21065;-68
2022/10/03 04:13:35;;;;;;;5.80;4.50;;;;;;;7.26;100.00;98411.08;1725664;82;21114;-66
2022/10/03 04:19:47;;;;;;;7.10;4.08;;;;;;;7.24;100.00;98399.83;1705261;83;21078;-69
2022/10/03 04:22:52;;;;;;;7.75;4.72;;;;;;;7.28;100.00;98405.30;1745187;81;21572;-67
2022/10/03 04:25:43;;;;;;;8.43;5.72;;;;;;;7.29;100.00;98402.22;1716637;82;21160;-66
2022/10/03 04:28:18;;;;;;;6.10;4.70;;;;;;;7.30;100.00;98411.78;1752042;81;21304;-67
2022/10/03 04:30:59;;;;;;;6.70;4.95;;;;;;;7.34;100.00;98414.16;1702283;82;21609;-67
2022/10/03 04:33:43;;;;;;;6.70;4.62;;;;;;;7.33;100.00;98407.22;1719578;82;21103;-69
2022/10/03 04:36:40;;;;;;;6.55;4.80;;;;;;;7.33;100.00;98408.53;1725489;82;21215;-67
2022/10/03 04:39:37;;;;;;;8.45;5.28;;;;;;;7.32;100.00;98405.54;1727128;82;21091;-67
2022/10/03 04:42:25;;;;;;;11.33;5.12;;;;;;;7.32;100.00;98412.09;1708683;83;21116;-68
2022/10/03 04:45:27;;;;;;;6.45;4.92;;;;;;;7.32;100.00;98405.54;1703886;82;21572;-68
2022/10/03 04:48:08;;;;;;;7.58;5.55;;;;;;;7.34;100.00;98411.55;1738439;81;21081;-68
2022/10/03 04:51:04;;;;;;;9.58;5.45;;;;;;;7.39;100.00;98413.09;1741410;81;21300;-68
2022/10/03 04:53:55;;;;;;;7.97;4.90;;;;;;;7.40;100.00;98408.22;1653330;84;21174;-66
2022/10/03 04:56:36;;;;;;;6.70;5.15;;;;;;;7.40;100.00;98410.38;1723705;81;21126;-68
2022/10/03 04:59:30;;;;;;;6.75;5.08;;;;;;;7.40;100.00;98412.15;1755504;81;21100;-69
2022/10/03 05:02:35;;;;;;;10.98;4.92;;;;;;;7.40;100.00;98414.77;1754232;81;21088;-68
2022/10/03 05:05:40;;;;;;;6.65;5.25;;;;;;;7.43;100.00;98411.98;1713440;81;21506;-69
2022/10/03 05:08:45;;;;;;;6.87;5.15;;;;;;;7.37;100.00;98414.47;1741363;81;21539;-66
2022/10/03 05:11:43;;;;;;;8.03;4.78;;;;;;;7.35;100.00;98404.53;1727446;81;21220;-68
2022/10/03 05:14:19;;;;;;;6.08;4.97;;;;;;;7.35;100.00;98415.01;1726647;81;21089;-67
2022/10/03 05:17:12;;;;;;;6.30;4.97;;;;;;;7.37;100.00;98413.63;1749115;81;21049;-68
2022/10/03 05:20:03;;;;;;;6.58;4.53;;;;;;;7.41;100.00;98420.38;1757299;81;21174;-67
2022/10/03 05:23:02;;;;;;;5.62;4.42;;;;;;;7.40;100.00;98427.86;1751719;81;21104;-66
2022/10/03 05:25:55;;;;;;;6.65;4.83;;;;;;;7.41;100.00;98425.62;1727311;81;21158;-68
2022/10/03 05:28:46;;;;;;;6.95;4.90;;;;;;;7.41;100.00;98430.42;1747195;81;21033;-67
2022/10/03 05:31:24;;;;;;;9.55;4.28;;;;;;;7.43;100.00;98430.31;1742596;81;21550;-66
2022/10/03 05:34:13;;;;;;;5.00;3.95;;;;;;;7.41;100.00;98433.03;1727656;81;21131;-66
2022/10/03 05:37:17;;;;;;;4.92;3.95;;;;;;;7.40;100.00;98429.17;1744488;81;21745;-69
2022/10/03 05:40:07;;;;;;;6.55;4.08;;;;;;;7.39;100.00;98423.09;1745687;81;21534;-66
2022/10/03 05:42:52;;;;;;;5.65;4.45;;;;;;;7.44;100.00;98432.03;1751859;81;21069;-67
2022/10/03 05:45:36;;;;;;;5.55;3.92;;;;;;;7.47;100.00;98422.69;1722226;81;21576;-69
2022/10/03 05:48:44;;;;;;;7.22;4.10;;;;;;;7.50;100.00;98427.77;1751455;81;21596;-68
2022/10/03 05:51:22;;;;;;;5.70;3.90;;;;;;;7.53;100.00;98427.16;1735966;81;21504;-66
2022/10/03 05:54:13;;;;;;;5.45;4.37;;;;;;;7.55;100.00;98424.47;1747523;81;21776;-68
2022/10/03 05:56:57;;;;;;;8.83;4.12;;;;;;;7.58;100.00;98424.77;1752915;81;26718;-67
2022/10/03 05:59:55;;;;;;;5.72;4.60;;;;;;;7.61;100.00;98426.75;1731098;81;21016;-67
2022/10/03 06:02:47;;;;;;;5.80;3.67;;;;;;;7.60;100.00;98431.62;1736192;81;21094;-68
2022/10/03 06:05:39;;;;;;;5.67;4.10;;;;;;;7.60;100.00;98435.55;1735604;81;21585;-67
2022/10/03 06:08:44;;;;;;;7.78;4.20;;;;;;;7.63;100.00;98433.23;1754254;81;21222;-68
2022/10/03 06:11:49;;;;;;;4.65;3.80;;;;;;;7.66;100.00;98436.98;1732337;81;21025;-67
2022/10/03 06:14:45;;;;;;;5.20;3.65;;;;;;;7.67;100.00;98443.94;1756439;81;21088;-68
2022/10/03 06:17:36;;;;;;;5.50;3.95;;;;;;;7.67;100.00;98442.16;1757512;81;21147;-67
2022/10/03 06:20:23;;;;;;;5.67;3.77;;;;;;;7.71;100.00;98450.25;1753015;81;21078;-69
2022/10/03 06:23:22;;;;;;;3.80;2.95;;;;;;;7.73;100.00;98455.39;1757757;81;21852;-68
2022/10/03 06:26:01;;;;;;;4.87;2.80;;;;;;;7.73;100.00;98447.09;1754470;81;20954;-67
2022/10/03 06:28:39;;;;;;;3.72;2.80;;;;;;;7.75;100.00;98450.48;1743449;81;21108;-67
2022/10/03 06:31:46;;;;;;;3.15;2.67;;;;;;;7.80;100.00;98459.84;1755643;81;21061;-68
2022/10/03 06:34:50;;;;;;;4.10;2.87;;;;;;;7.83;100.00;98463.17;1727514;81;21013;-69
2022/10/03 06:37:53;;;;;;;5.60;2.72;;;;;;;7.87;100.00;98458.62;1753099;81;21868;-68
2022/10/03 06:40:38;;;;;;;5.00;2.67;;;;;;;7.91;100.00;98457.52;1746110;81;21049;-68
2022/10/03 06:43:41;;;;;;;3.83;2.80;;;;;;;7.95;100.00;98458.58;1735089;81;21076;-69
2022/10/03 06:46:34;;;;;;;3.72;2.50;;;;;;;8.02;100.00;98465.66;1735634;81;21024;-69
2022/10/03 06:49:22;;;;;;;4.10;2.70;;;;;;;8.02;100.00;98470.91;1729376;81;21206;-67
2022/10/03 06:52:25;;;;;;;6.10;2.77;;;;;;;8.01;100.00;98469.23;1735286;81;21174;-67
2022/10/03 06:55:39;;;;;;;3.30;2.72;;;;;;;8.03;100.00;98472.62;1754192;81;21561;-68
2022/10/03 06:58:32;;;;;;;4.65;2.58;;;;;;;8.00;100.00;98474.06;1744423;81;21104;-69
2022/10/03 07:01:39;;;;;;;7.30;2.80;;;;;;;7.98;100.00;98468.92;1744612;81;21552;-68
2022/10/03 07:04:30;;;;;;;6.15;3.12;;;;;;;7.96;100.00;98473.88;1745179;81;21019;-68
2022/10/03 07:07:29;;;;;;;2.92;2.33;;;;;;;7.97;100.00;98482.10;1741227;81;21273;-69
2022/10/03 07:10:36;;;;;;;2.98;2.15;;;;;;;8.03;100.00;98483.10;1731946;81;21120;-69
2022/10/03 07:13:30;;;;;;;3.27;2.10;;;;;;;8.03;100.00;98483.10;1743942;81;21121;-69
2022/10/03 07:16:24;;;;;;;2.55;2.12;;;;;;;8.08;100.00;98482.86;1749097;81;21025;-69
2022/10/03 07:19:14;;;;;;;2.42;2.17;;;;;;;8.12;100.00;98486.98;1694165;81;21115;-67
2022/10/03 07:22:23;;;;;;;4.00;2.00;;;;;;;8.13;100.00;98492.16;1755854;81;21188;-69
2022/10/03 07:25:13;;;;;;;2.77;1.95;;;;;;;8.13;100.00;98492.63;1740178;81;21156;-69
2022/10/03 07:28:15;;;;;;;2.22;1.70;;;;;;;8.15;100.00;98487.69;1753212;81;21069;-69
2022/10/03 07:30:48;;;;;;;2.87;1.80;;;;;;;8.14;100.00;98488.62;1753028;81;21113;-69
2022/10/03 07:33:57;;;;;;;1.92;1.70;;;;;;;8.16;100.00;98485.43;1756219;81;21810;-68
2022/10/03 07:40:04;;;;;;;3.08;1.85;;;;;;;8.24;100.00;98486.83;1740997;81;21033;-68
2022/10/03 07:43:09;;;;;;;2.15;1.67;;;;;;;8.33;100.00;98482.39;1756580;81;21038;-68
2022/10/03 07:45:47;;;;;;;2.35;1.70;;;;;;;8.42;100.00;98481.92;1653087;83;21083;-69
2022/10/03 07:48:42;;;;;;;1.62;1.45;;;;;;;8.53;100.00;98476.07;1702520;83;21204;-69
2022/10/03 07:51:43;;;;;;;3.85;1.50;;;;;;;8.61;100.00;98478.66;1708831;83;21250;-68
2022/10/03 07:54:31;;;;;;;2.50;1.85;;;;;;;8.68;100.00;98485.73;1715944;83;21592;-68
2022/10/03 07:57:21;;;;;;;2.27;1.50;;;;;;;8.74;100.00;98472.72;1714185;83;21108;-68
2022/10/03 08:00:09;;;;;;;2.10;1.72;;;;;;;8.83;100.00;98468.27;1707393;83;21111;-68
2022/10/03 08:03:37;;;;;;;1.95;1.75;;;;;;;8.89;100.00;98467.92;1706851;83;21074;-68
2022/10/03 08:06:10;;;;;;;3.25;1.90;;;;;;;8.95;100.00;98464.97;1719434;83;21159;-69
2022/10/03 08:09:14;;;;;;;3.83;1.65;;;;;;;9.05;100.00;98464.44;1717397;83;21141;-69
2022/10/03 08:11:59;;;;;;;2.67;1.70;;;;;;;9.14;100.00;98462.59;1705552;83;21687;-69
2022/10/03 08:15:04;;;;;;;2.65;1.90;;;;;;;9.17;100.00;98459.31;1707629;83;21191;-68
2022/10/03 08:17:54;;;;;;;4.33;1.75;;;;;;;9.21;100.00;98459.98;1710644;83;21059;-70
2022/10/03 08:20:41;;;;;;;2.45;1.62;;;;;;;9.21;100.00;98456.05;1710234;83;21132;-68
2022/10/03 08:23:53;;;;;;;2.90;2.10;;;;;;;9.23;100.00;98458.12;1707917;83;21131;-68
2022/10/03 08:26:54;;;;;;;6.08;3.02;;;;;;;9.25;100.00;98457.57;1711005;83;21048;-68
2022/10/03 08:29:54;;;;;;;6.28;3.80;;;;;;;9.29;100.00;98460.38;1709366;83;21101;-68
2022/10/03 08:33:03;;;;;;;13.10;6.83;;;;;;;9.36;100.00;98457.80;1713087;83;21088;-69
2022/10/03 08:35:54;;;;;;;13.53;6.70;;;;;;;9.45;100.00;98459.88;1716771;82;21454;-67
2022/10/03 08:38:53;;;;;;;13.93;6.45;;;;;;;9.57;100.00;98459.61;1707209;83;21068;-68
2022/10/03 08:42:02;;;;;;;10.48;5.65;;;;;;;9.68;100.00;98458.95;1706989;83;21081;-68
2022/10/03 08:44:57;;;;;;;9.30;3.50;;;;;;;9.76;100.00;98465.09;1721711;81;21017;-68
2022/10/03 08:47:49;;;;;;;10.05;3.70;;;;;;;9.86;100.00;98464.89;1719644;82;21073;-67
2022/10/03 08:50:43;;;;;;;13.90;3.37;;;;;;;9.99;100.00;98465.00;1741344;81;21208;-68
2022/10/03 08:53:37;;;;;;;7.47;3.52;;;;;;;10.13;100.00;98474.20;1741010;81;21129;-68
2022/10/03 08:56:21;;;;;;;12.10;4.25;;;;;;;10.25;100.00;98483.95;1680586;84;21538;-67
2022/10/03 08:59:15;;;;;;;9.95;3.35;;;;;;;10.29;100.00;98471.50;1670514;83;21109;-68
2022/10/03 09:01:47;;;;;;;8.35;3.60;;;;;;;10.28;100.00;98473.70;1735169;81;21053;-69
2022/10/03 09:04:54;;;;;;;7.50;3.20;;;;;;;10.29;100.00;98480.71;1738788;81;21110;-69
2022/10/03 09:07:34;;;;;;;8.73;3.47;;;;;;;10.21;100.00;98477.19;1681757;84;21058;-69
2022/10/03 09:10:38;;;;;;;10.85;3.42;;;;;;;10.20;100.00;98481.25;1737148;81;21180;-67
2022/10/03 09:13:22;;;;;;;6.03;3.52;;;;;;;10.21;100.00;98478.50;1652968;84;21561;-68
2022/10/03 09:16:29;;;;;;;8.98;3.52;;;;;;;10.32;100.00;98475.25;1737250;81;21015;-69
2022/10/03 09:19:26;;;;;;;9.13;3.27;;;;;;;10.83;100.00;98469.41;1588369;88;21145;-69
2022/10/03 09:22:18;;;;;;;10.00;3.70;;;;;;;11.40;100.00;98475.75;1687092;84;21608;-69
2022/10/03 09:25:23;;;;;;;11.20;3.22;;;;;;;11.83;100.00;98474.17;1731761;81;21521;-68
2022/10/03 09:28:19;;;;;;;5.87;2.95;;;;;;;12.12;100.00;98468.25;1687483;84;21669;-69
2022/10/03 09:31:03;;;;;;;6.50;3.17;;;;;;;12.38;100.00;98479.60;1690565;84;21049;-68
2022/10/03 09:34:12;;;;;;;8.98;3.10;;;;;;;12.58;100.00;98473.36;1742666;81;21054;-68
2022/10/03 09:37:20;;;;;;;10.32;2.75;;;;;;;12.75;100.00;98476.97;1733104;81;21100;-67
2022/10/03 09:40:17;;;;;;;5.92;2.80;;;;;;;13.02;100.00;98481.19;1736386;81;21095;-69
2022/10/03 09:43:02;;;;;;;9.98;2.60;;;;;;;13.52;100.00;98476.61;1740564;81;21131;-69
2022/10/03 09:46:08;;;;;;;5.62;2.60;;;;;;;14.08;100.00;98477.22;1726404;82;21181;-69
2022/10/03 09:49:00;;;;;;;5.35;2.20;;;;;;;14.51;100.00;98479.61;1703459;83;22072;-68
2022/10/03 09:51:45;;;;;;;4.15;1.95;;;;;;;14.61;100.00;98477.96;1688123;82;22472;-67
2022/10/03 09:54:51;;;;;;;3.95;2.12;;;;;;;14.65;100.00;98478.05;1720419;82;21137;-70
2022/10/03 09:58:04;;;;;;;4.95;2.25;;;;;;;14.67;100.00;98476.95;1709464;83;21126;-70
2022/10/03 10:01:00;;;;;;;3.77;2.27;;;;;;;14.54;100.00;98470.98;1727662;83;21054;-68
2022/10/03 10:03:47;;;;;;;3.80;1.98;;;;;;;14.17;100.00;98480.93;1727833;83;21123;-67
2022/10/03 10:06:28;;;;;;;5.33;1.90;;;;;;;13.96;100.00;98484.28;1714017;83;21047;-68
2022/10/03 10:09:53;;;;;;;4.10;1.55;;;;;;;13.78;100.00;98483.05;1688287;83;21035;-69
2022/10/03 10:12:57;;;;;;;5.12;1.65;;;;;;;13.66;100.00;98477.37;1723305;82;21067;-69
2022/10/03 10:15:56;;;;;;;4.72;2.12;;;;;;;13.47;100.00;98488.02;1717485;83;21035;-66
2022/10/03 10:18:58;;;;;;;4.17;1.92;;;;;;;13.39;100.00;98489.09;1714672;83;21546;-69
2022/10/03 10:21:39;;;;;;;4.08;2.10;;;;;;;13.32;100.00;98487.38;1707311;83;21007;-68
2022/10/03 10:24:27;;;;;;;3.37;1.70;;;;;;;13.31;100.00;98488.33;1726579;83;21587;-68
2022/10/03 10:27:27;;;;;;;3.58;1.85;;;;;;;13.29;100.00;98490.72;1713978;82;21066;-69
2022/10/03 10:30:28;;;;;;;4.62;2.05;;;;;;;13.31;100.00;98495.42;1722083;83;21070;-68
2022/10/03 10:33:27;;;;;;;3.83;2.05;;;;;;;13.21;100.00;98493.42;1704145;83;21838;-69
2022/10/03 10:36:42;;;;;;;4.22;1.75;;;;;;;13.11;100.00;98500.36;1710728;83;21587;-68
2022/10/03 10:39:56;;;;;;;4.40;2.15;;;;;;;12.98;100.00;98486.35;1727310;83;21106;-69
2022/10/03 10:43:08;;;;;;;7.58;2.50;;;;;;;12.87;100.00;98492.41;1706224;82;21043;-67
2022/10/03 10:46:17;;;;;;;6.12;2.42;;;;;;;12.72;100.00;98491.73;1706663;83;21077;-69
2022/10/03 10:49:18;;;;;;;4.47;1.95;;;;;;;12.63;100.00;98502.95;1695036;84;21138;-68
2022/10/03 10:52:11;;;;;;;3.70;1.65;;;;;;;12.60;100.00;98500.51;1703270;83;21547;-69
2022/10/03 10:55:02;;;;;;;3.55;1.87;;;;;;;12.66;100.00;98510.64;1680321;84;21030;-69
2022/10/03 10:58:07;;;;;;;6.15;2.00;;;;;;;12.74;100.00;98510.92;1676257;84;21068;-69
2022/10/03 11:01:00;;;;;;;5.08;1.85;;;;;;;12.82;100.00;98502.95;1694575;84;21526;-67
2022/10/03 11:04:03;;;;;;;4.85;1.67;;;;;;;12.87;100.00;98503.45;1683145;84;22191;-66
2022/10/03 11:06:58;;;;;;;6.28;1.70;;;;;;;12.94;100.00;98496.77;1691502;84;21125;-70
2022/10/03 11:09:51;;;;;;;3.58;1.60;;;;;;;13.05;100.00;98499.96;1671825;84;21132;-68
2022/10/03 11:12:40;;;;;;;3.98;1.90;;;;;;;13.16;100.00;98511.43;1681931;84;21053;-68
2022/10/03 11:15:29;;;;;;;6.08;2.30;;;;;;;13.19;100.00;98511.20;1719629;82;21598;-69
2022/10/03 11:18:29;;;;;;;3.87;1.60;;;;;;;13.35;100.00;98499.53;1712743;82;21032;-69
2022/10/03 11:21:22;;;;;;;3.75;1.80;;;;;;;13.49;100.00;98500.66;1689462;83;21713;-69
2022/10/03 11:24:33;;;;;;;7.17;1.90;;;;;;;13.51;100.00;98509.32;1698705;83;21624;-67
2022/10/03 11:27:34;;;;;;;7.12;2.02;;;;;;;13.51;100.00;98513.29;1619517;87;21153;-67
2022/10/03 11:30:20;;;;;;;4.80;2.08;;;;;;;13.41;100.00;98519.75;1629544;87;21085;-67
2022/10/03 11:33:43;;;;;;;4.33;1.72;;;;;;;13.39;100.00;98504.47;1704163;82;21793;-68
2022/10/03 11:36:38;;;;;;;6.35;2.00;;;;;;;13.51;100.00;98515.93;1607710;88;21088;-69
2022/10/03 11:39:07;;;;;;;4.80;1.87;;;;;;;13.47;100.00;98507.02;1619605;86;21712;-68
2022/10/03 11:41:57;;;;;;;4.60;2.17;;;;;;;13.51;100.00;98500.06;1661357;82;21275;-67
2022/10/03 11:44:29;;;;;;;4.92;1.95;;;;;;;13.49;100.00;98501.14;1707331;82;21018;-67
2022/10/03 11:47:29;;;;;;;2.85;1.80;;;;;;;13.50;100.00;98504.97;1684485;84;21081;-68
2022/10/03 11:52:39;;;;;;;4.92;2.08;;;;;;;13.32;100.00;98510.31;1782064;80;22687;-67
2022/10/03 11:55:38;;;;;;;5.45;2.15;;;;;;;13.21;100.00;98514.58;1756146;81;21104;-69
2022/10/03 11:58:33;;;;;;;4.17;1.75;;;;;;;13.14;100.00;98518.62;1756380;81;21361;-71
2022/10/03 12:01:29;;;;;;;8.98;1.82;;;;;;;13.30;100.00;98504.32;1726878;81;21009;-69
2022/10/03 12:04:32;;;;;;;3.77;1.82;;;;;;;13.51;100.00;98508.00;1755712;81;21537;-68
2022/10/03 12:11:05;;;;;;;4.50;2.22;;;;;;;13.86;100.00;98513.75;1756304;81;21029;-69
2022/10/03 12:13:48;;;;;;;7.45;2.05;;;;;;;14.15;98.59;98518.59;1756845;81;21342;-67
2022/10/03 12:16:31;;;;;;;3.77;1.72;;;;;;;14.05;97.28;98504.74;1755500;80;21024;-67
2022/10/03 12:19:07;;;;;;;4.35;2.17;;;;;;;14.04;98.69;98517.63;1722511;83;21025;-68
2022/10/03 12:21:54;;;;;;;5.45;2.10;;;;;;;13.95;98.28;98516.17;1722816;83;21061;-69
2022/10/03 12:24:26;;;;;;;3.00;1.67;;;;;;;13.87;99.01;98508.80;1722855;83;21535;-68
2022/10/03 12:27:29;;;;;;;7.47;1.92;;;;;;;13.83;100.00;98515.31;1722765;83;21915;-69
2022/10/03 12:30:00;;;;;;;5.45;1.65;;;;;;;13.74;99.75;98510.72;1722718;83;21683;-67
2022/10/03 12:33:16;;;;;;;4.47;1.80;;;;;;;13.72;100.00;98511.31;1722768;83;21092;-69
2022/10/03 12:36:14;;;;;;;5.03;1.90;;;;;;;13.64;100.00;98512.73;1644857;87;21586;-70
2022/10/03 12:39:13;;;;;;;3.35;1.70;;;;;;;13.53;100.00;98508.73;1726741;83;21522;-68
2022/10/03 12:42:05;;;;;;;6.00;1.85;;;;;;;13.52;100.00;98509.67;1664834;83;21122;-67
2022/10/03 12:44:50;;;;;;;6.40;1.80;;;;;;;13.36;100.00;98512.61;1712676;83;20958;-69
2022/10/03 12:47:53;;;;;;;5.70;2.17;;;;;;;13.29;100.00;98519.80;1700522;84;21026;-69
2022/10/03 12:50:44;;;;;;;5.17;1.90;;;;;;;13.17;100.00;98512.27;1641496;84;21522;-70
2022/10/03 12:53:22;;;;;;;4.90;1.77;;;;;;;13.15;100.00;98516.33;1683922;81;20966;-68
2022/10/03 12:56:15;;;;;;;6.30;2.37;;;;;;;13.18;100.00;98515.27;1682206;85;20959;-68
2022/10/03 12:58:50;;;;;;;7.45;1.72;;;;;;;13.16;100.00;98525.13;1678107;85;21088;-69
2022/10/03 13:01:43;;;;;;;3.92;1.82;;;;;;;12.96;100.00;98507.59;1654191;85;21073;-69
2022/10/03 13:04:37;;;;;;;3.80;1.70;;;;;;;12.84;100.00;98538.00;1643378;85;21132;-69
2022/10/03 13:07:33;;;;;;;4.78;1.85;;;;;;;12.62;100.00;98528.98;1679197;85;21060;-68
2022/10/03 13:10:32;;;;;;;5.03;2.10;;;;;;;12.43;100.00;98527.28;1679245;85;21924;-67
2022/10/03 13:13:12;;;;;;;3.37;1.55;;;;;;;12.26;100.00;98531.08;1669534;85;21048;-68
2022/10/03 13:16:07;;;;;;;4.70;1.95;;;;;;;12.10;100.00;98531.28;1679195;85;21006;-69
2022/10/03 13:18:44;;;;;;;5.00;2.20;;;;;;;12.04;100.00;98527.77;1679140;85;21524;-69
2022/10/03 13:21:22;;;;;;;5.33;2.02;;;;;;;12.00;100.00;98527.60;1679177;85;21100;-68
2022/10/03 13:24:12;;;;;;;3.80;1.92;;;;;;;12.01;100.00;98519.59;1679049;85;21158;-67
2022/10/03 13:27:18;;;;;;;6.20;2.12;;;;;;;12.02;100.00;98520.43;1678858;85;21022;-67
2022/10/03 13:29:52;;;;;;;7.08;2.37;;;;;;;11.98;100.00;98516.30;1679337;85;21053;-68
2022/10/03 13:32:35;;;;;;;5.45;2.00;;;;;;;11.95;100.00;98530.08;1679258;85;21104;-68
2022/10/03 13:38:38;;;;;;;9.88;2.60;;;;;;;11.96;100.00;98521.67;1520880;93;21596;-66
2022/10/03 13:41:32;;;;;;;5.58;2.40;;;;;;;12.02;100.00;98519.11;1521130;94;21159;-69
2022/10/03 13:44:11;;;;;;;4.70;2.60;;;;;;;12.02;100.00;98519.95;1633402;85;21060;-69
2022/10/03 13:46:52;;;;;;;6.37;2.00;;;;;;;12.00;100.00;98523.64;1679080;85;21056;-68
2022/10/03 13:49:33;;;;;;;3.62;2.00;;;;;;;11.91;100.00;98535.18;1679146;85;21064;-67
2022/10/03 13:52:09;;;;;;;2.95;1.80;;;;;;;11.87;100.00;98540.73;1687086;83;21150;-68